Accueil
METAR-TAF:

METAR-TAF

Aéroports :

Southampton, Angleterre

Aéroport de Southampton

latitude: 50-54N, longitude: 001-24W, altitude: 9 m

Observation

Le bulletin a été fait il y a 48 minutes, à 21:50 UTC
Vent 3 kt de ouest/nord-ouest
Température 8°C
Humidité 81%
Pression 1018 hPa
Visibilité 10 km ou plus
Nuages épars à une hauteur de 4400 ft

METAR: EGHI 272150Z 29003KT 9999 SCT044 08/05 Q1018

Heure: 23:38 (22:38 UTC)

Prévision

Le bulletin a été fait il y a 5 heures et 35 minutes, à 17:03 UTC
Prévision valable du 27 à 18 UTC au 27 à 22 UTC
Vent 6 kt de ouest/nord-ouest
Visibilité 10 km ou plus
Nuages fragmentés à une hauteur de 4500 ft
Probabilité 30% :
Temporairement
du 27 à 20 UTC au 27 à 22 UTC
Visibilité: 8000 m
averses de pluie

TAF: EGHI 271703Z 2718/2722 29006KT 9999 BKN045 PROB30 TEMPO 2720/2722 8000 SHRA

Observations et prévisions météorologiques de plus de 4000 aéroports (messages METAR et TAF).

Les stations disponibles sont représentées par des disques jaunes et rouges sur la carte.

Passer la souris dessus pour voir le nom de la station.

Cliquer dessus pour voir les observations et prévisions météorologiques.

Pour changer de carte: cliquez sur les boutons verts avec une croix noire pour zoomer, sur le bouton vert avec un tiret pour effectuer un zoom arrière, ou sur les flèches vertes pour les cartes adjacentes.


METAR-TAF: